Time,TemperatureF,DewpointF,PressureIn,WindDirection,WindDirectionDegrees,WindSpeedMPH,WindSpeedGustMPH,Humidity,HourlyPrecipIn,Conditions,Clouds,dailyrainin,SoftwareType,DateUTC
2013-02-28 00:13:00,31.9,31.0,29.77,NW,305,5.0,7.0,95,0.00,,,0.03,weatherlink.com 1.10,2013-02-28 06:13:00,
2013-02-28 00:28:00,32.0,31.0,29.78,North,351,3.0,6.0,95,0.00,,,0.03,weatherlink.com 1.10,2013-02-28 06:28:00,
2013-02-28 00:43:00,32.2,31.0,29.78,NNW,340,4.0,8.0,95,0.00,,,0.03,weatherlink.com 1.10,2013-02-28 06:43:00,
2013-02-28 00:58:00,32.4,31.0,29.79,NNW,327,3.0,7.0,94,0.00,,,0.03,weatherlink.com 1.10,2013-02-28 06:58:00,
2013-02-28 01:14:00,32.6,31.0,29.79,North,349,3.0,7.0,94,0.00,,,0.03,weatherlink.com 1.10,2013-02-28 07:14:00,
2013-02-28 01:44:00,32.8,31.0,29.80,NNW,338,4.0,8.0,93,0.00,,,0.03,weatherlink.com 1.10,2013-02-28 07:44:00,
2013-02-28 01:59:00,32.9,31.0,29.80,NW,324,3.0,7.0,93,0.00,,,0.03,weatherlink.com 1.10,2013-02-28 07:59:00,
2013-02-28 02:14:00,32.9,31.0,29.80,NNW,331,4.0,9.0,93,0.00,,,0.03,weatherlink.com 1.10,2013-02-28 08:14:00,
2013-02-28 02:29:00,32.7,31.0,29.81,NNW,346,4.0,10.0,94,0.00,,,0.03,weatherlink.com 1.10,2013-02-28 08:29:00,
2013-02-28 02:44:00,32.5,31.0,29.81,NNW,343,1.0,7.0,95,0.00,,,0.03,weatherlink.com 1.10,2013-02-28 08:44:00,
2013-02-28 02:59:00,32.4,31.0,29.81,NNW,348,5.0,7.0,95,0.00,,,0.03,weatherlink.com 1.10,2013-02-28 08:59:00,
2013-02-28 03:14:00,32.3,31.0,29.81,NNW,330,5.0,8.0,95,0.00,,,0.03,weatherlink.com 1.10,2013-02-28 09:14:00,
2013-02-28 03:29:00,32.3,31.0,29.82,NNW,344,3.0,6.0,96,0.00,,,0.03,weatherlink.com 1.10,2013-02-28 09:29:00,
2013-02-28 03:44:00,32.4,31.0,29.83,North,350,3.0,5.0,96,0.00,,,0.03,weatherlink.com 1.10,2013-02-28 09:44:00,
2013-02-28 03:59:00,32.5,31.0,29.83,NNW,346,3.0,7.0,95,0.00,,,0.03,weatherlink.com 1.10,2013-02-28 09:59:00,
2013-02-28 04:14:00,32.5,31.0,29.83,North,349,4.0,6.0,95,0.00,,,0.03,weatherlink.com 1.10,2013-02-28 10:14:00,
2013-02-28 04:29:00,32.5,31.0,29.84,North,5,4.0,7.0,95,0.00,,,0.03,weatherlink.com 1.10,2013-02-28 10:29:00,
2013-02-28 04:44:00,32.5,31.0,29.85,NNW,346,3.0,5.0,95,0.00,,,0.03,weatherlink.com 1.10,2013-02-28 10:44:00,
2013-02-28 04:59:00,32.5,31.0,29.85,North,5,4.0,6.0,95,0.00,,,0.03,weatherlink.com 1.10,2013-02-28 10:59:00,
2013-02-28 05:14:00,32.5,31.0,29.86,North,360,4.0,6.0,95,0.00,,,0.03,weatherlink.com 1.10,2013-02-28 11:14:00,
2013-02-28 05:29:00,32.5,31.0,29.86,North,5,3.0,7.0,95,0.00,,,0.03,weatherlink.com 1.10,2013-02-28 11:29:00,
2013-02-28 05:44:00,32.5,31.0,29.87,North,360,3.0,6.0,95,0.00,,,0.03,weatherlink.com 1.10,2013-02-28 11:44:00,
2013-02-28 05:59:00,32.5,31.0,29.87,North,360,4.0,5.0,94,0.00,,,0.03,weatherlink.com 1.10,2013-02-28 11:59:00,
2013-02-28 06:14:00,32.6,31.0,29.87,NNW,343,5.0,6.0,94,0.00,,,0.03,weatherlink.com 1.10,2013-02-28 12:14:00,
2013-02-28 06:29:00,32.5,31.0,29.88,North,350,2.0,5.0,94,0.00,,,0.03,weatherlink.com 1.10,2013-02-28 12:29:00,
2013-02-28 06:44:00,32.5,31.0,29.88,North,360,4.0,5.0,94,0.00,,,0.03,weatherlink.com 1.10,2013-02-28 12:44:00,
2013-02-28 06:59:00,32.5,31.0,29.89,North,355,2.0,5.0,94,0.00,,,0.03,weatherlink.com 1.10,2013-02-28 12:59:00,
2013-02-28 07:14:00,32.5,31.0,29.90,North,355,4.0,5.0,93,0.00,,,0.03,weatherlink.com 1.10,2013-02-28 13:14:00,
2013-02-28 07:29:00,32.8,31.0,29.91,North,350,2.0,5.0,93,0.00,,,0.03,weatherlink.com 1.10,2013-02-28 13:29:00,
2013-02-28 07:44:00,32.9,31.0,29.91,NNW,346,2.0,5.0,93,0.00,,,0.03,weatherlink.com 1.10,2013-02-28 13:44:00,
2013-02-28 07:59:00,33.1,31.0,29.92,North,351,4.0,5.0,93,0.00,,,0.03,weatherlink.com 1.10,2013-02-28 13:59:00,
2013-02-28 08:14:00,33.4,31.0,29.93,North,351,3.0,6.0,92,0.00,,,0.03,weatherlink.com 1.10,2013-02-28 14:14:00,
2013-02-28 08:29:00,33.5,32.0,29.93,North,355,3.0,5.0,92,0.00,,,0.03,weatherlink.com 1.10,2013-02-28 14:29:00,
2013-02-28 08:44:00,33.8,32.0,29.93,North,360,2.0,8.0,91,0.00,,,0.03,weatherlink.com 1.10,2013-02-28 14:44:00,
2013-02-28 08:59:00,34.0,32.0,29.94,North,360,3.0,6.0,91,0.00,,,0.03,weatherlink.com 1.10,2013-02-28 14:59:00,
2013-02-28 09:14:00,34.2,32.0,29.95,North,11,5.0,7.0,90,0.01,,,0.04,weatherlink.com 1.10,2013-02-28 15:14:00,
2013-02-28 09:29:00,34.3,32.0,29.95,North,360,3.0,6.0,90,0.01,,,0.04,weatherlink.com 1.10,2013-02-28 15:29:00,
2013-02-28 09:45:00,34.6,32.0,29.96,North,11,5.0,8.0,89,0.01,,,0.04,weatherlink.com 1.10,2013-02-28 15:45:00,
2013-02-28 10:00:00,34.6,31.0,29.96,NNW,344,8.0,10.0,88,0.01,,,0.04,weatherlink.com 1.10,2013-02-28 16:00:00,
2013-02-28 10:15:00,34.8,32.0,29.97,NNW,338,4.0,6.0,88,0.00,,,0.04,weatherlink.com 1.10,2013-02-28 16:15:00,
2013-02-28 10:30:00,35.2,32.0,29.97,North,5,2.0,6.0,88,0.00,,,0.04,weatherlink.com 1.10,2013-02-28 16:30:00,
2013-02-28 10:45:00,35.3,32.0,29.98,North,5,3.0,5.0,87,0.00,,,0.04,weatherlink.com 1.10,2013-02-28 16:45:00,
2013-02-28 11:00:00,35.5,32.0,29.98,North,350,3.0,5.0,86,0.00,,,0.04,weatherlink.com 1.10,2013-02-28 17:00:00,
2013-02-28 11:15:00,35.6,32.0,29.98,North,9,4.0,6.0,87,0.00,,,0.04,weatherlink.com 1.10,2013-02-28 17:15:00,
2013-02-28 11:30:00,35.7,32.0,29.98,North,350,4.0,6.0,87,0.00,,,0.04,weatherlink.com 1.10,2013-02-28 17:30:00,
2013-02-28 11:45:00,35.9,32.0,29.98,NNW,327,2.0,8.0,86,0.00,,,0.04,weatherlink.com 1.10,2013-02-28 17:45:00,
2013-02-28 12:00:00,36.9,33.0,29.98,North,360,2.0,6.0,84,0.00,,,0.04,weatherlink.com 1.10,2013-02-28 18:00:00,
2013-02-28 12:15:00,35.9,32.0,29.99,NNW,335,5.0,9.0,86,0.00,,,0.04,weatherlink.com 1.10,2013-02-28 18:15:00,
2013-02-28 12:30:00,35.4,32.0,29.99,NNW,340,3.0,5.0,87,0.00,,,0.04,weatherlink.com 1.10,2013-02-28 18:30:00,
2013-02-28 12:45:00,35.5,32.0,29.99,North,360,3.0,5.0,88,0.00,,,0.04,weatherlink.com 1.10,2013-02-28 18:45:00,
2013-02-28 13:00:00,35.7,31.0,29.99,North,360,3.0,6.0,83,0.00,,,0.04,weatherlink.com 1.10,2013-02-28 19:00:00,
2013-02-28 13:15:00,35.4,31.0,29.99,North,355,4.0,6.0,84,0.00,,,0.04,weatherlink.com 1.10,2013-02-28 19:15:00,
2013-02-28 13:30:00,35.3,31.0,29.99,North,5,2.0,6.0,83,0.00,,,0.04,weatherlink.com 1.10,2013-02-28 19:30:00,
2013-02-28 13:45:00,35.9,30.0,30.00,North,351,4.0,5.0,80,0.00,,,0.04,weatherlink.com 1.10,2013-02-28 19:45:00,
2013-02-28 14:00:00,36.2,30.0,30.00,NNW,336,6.0,6.0,79,0.00,,,0.04,weatherlink.com 1.10,2013-02-28 20:00:00,
2013-02-28 14:15:00,36.1,30.0,30.01,NW,325,3.0,6.0,78,0.00,,,0.04,weatherlink.com 1.10,2013-02-28 20:15:00,
2013-02-28 14:30:00,35.4,30.0,30.01,NW,321,2.0,7.0,79,0.00,,,0.04,weatherlink.com 1.10,2013-02-28 20:30:00,
2013-02-28 14:45:00,35.3,30.0,30.02,NNW,347,2.0,4.0,80,0.00,,,0.04,weatherlink.com 1.10,2013-02-28 20:45:00,
2013-02-28 15:00:00,35.0,30.0,30.03,NW,321,3.0,6.0,81,0.00,,,0.04,weatherlink.com 1.10,2013-02-28 21:00:00,
2013-02-28 15:15:00,34.5,29.0,30.03,NNE,24,2.0,7.0,80,0.00,,,0.04,weatherlink.com 1.10,2013-02-28 21:15:00,
2013-02-28 15:30:00,34.6,30.0,30.03,North,360,2.0,4.0,82,0.00,,,0.00,weatherlink.com 1.10,2013-02-28 21:30:00,
2013-02-28 15:45:00,34.5,29.0,30.04,North,355,3.0,5.0,80,0.00,,,0.00,weatherlink.com 1.10,2013-02-28 21:45:00,
2013-02-28 16:00:00,34.1,29.0,30.04,NNW,336,4.0,5.0,81,0.01,,,0.01,weatherlink.com 1.10,2013-02-28 22:00:00,
2013-02-28 16:15:00,34.0,29.0,30.04,NNE,17,4.0,5.0,81,0.01,,,0.01,weatherlink.com 1.10,2013-02-28 22:15:00,
2013-02-28 16:30:00,33.8,29.0,30.04,North,5,2.0,6.0,81,0.01,,,0.01,weatherlink.com 1.10,2013-02-28 22:30:00,
2013-02-28 16:45:00,33.5,28.0,30.05,North,10,3.0,5.0,81,0.01,,,0.01,weatherlink.com 1.10,2013-02-28 22:45:00,
2013-02-28 17:00:00,33.3,29.0,30.05,North,5,4.0,5.0,83,0.00,,,0.01,weatherlink.com 1.10,2013-02-28 23:00:00,
2013-02-28 17:15:00,33.0,29.0,30.06,NNE,15,3.0,5.0,84,0.00,,,0.01,weatherlink.com 1.10,2013-02-28 23:15:00,
2013-02-28 17:30:00,32.7,29.0,30.07,North,5,2.0,4.0,85,0.00,,,0.01,weatherlink.com 1.10,2013-02-28 23:30:00,
2013-02-28 17:45:00,32.4,28.0,30.07,North,355,2.0,4.0,85,0.00,,,0.01,weatherlink.com 1.10,2013-02-28 23:45:00,
2013-02-28 18:01:00,32.1,28.0,30.08,North,355,2.0,4.0,86,0.00,,,0.01,weatherlink.com 1.10,2013-03-01 00:01:00,
2013-02-28 18:16:00,31.9,28.0,30.08,North,355,2.0,4.0,86,0.00,,,0.01,weatherlink.com 1.10,2013-03-01 00:16:00,
2013-02-28 18:31:00,31.8,28.0,30.08,North,5,2.0,4.0,86,0.00,,,0.01,weatherlink.com 1.10,2013-03-01 00:31:00,
2013-02-28 18:46:00,31.6,28.0,30.09,North,5,2.0,6.0,86,0.00,,,0.01,weatherlink.com 1.10,2013-03-01 00:46:00,
2013-02-28 19:01:00,31.3,28.0,30.09,North,360,4.0,6.0,86,0.00,,,0.01,weatherlink.com 1.10,2013-03-01 01:01:00,
2013-02-28 19:16:00,31.0,28.0,30.10,North,360,1.0,4.0,87,0.00,,,0.01,weatherlink.com 1.10,2013-03-01 01:16:00,
2013-02-28 19:31:00,30.8,28.0,30.10,NNW,348,2.0,3.0,88,0.00,,,0.01,weatherlink.com 1.10,2013-03-01 01:31:00,
2013-02-28 19:46:00,30.6,27.0,30.10,North,5,4.0,4.0,86,0.00,,,0.01,weatherlink.com 1.10,2013-03-01 01:46:00,
2013-02-28 20:01:00,30.3,26.0,30.10,NNE,18,3.0,5.0,84,0.00,,,0.01,weatherlink.com 1.10,2013-03-01 02:01:00,
2013-02-28 20:16:00,30.2,26.0,30.10,North,11,2.0,6.0,84,0.00,,,0.01,weatherlink.com 1.10,2013-03-01 02:16:00,
2013-02-28 20:31:00,30.0,26.0,30.10,North,5,2.0,4.0,84,0.00,,,0.01,weatherlink.com 1.10,2013-03-01 02:31:00,
2013-02-28 20:46:00,29.7,25.0,30.10,North,5,2.0,4.0,84,0.00,,,0.01,weatherlink.com 1.10,2013-03-01 02:46:00,
2013-02-28 21:01:00,29.5,25.0,30.11,NNE,25,2.0,6.0,82,0.00,,,0.01,weatherlink.com 1.10,2013-03-01 03:01:00,
2013-02-28 21:16:00,29.2,24.0,30.11,North,11,2.0,5.0,82,0.00,,,0.01,weatherlink.com 1.10,2013-03-01 03:16:00,
2013-02-28 21:31:00,29.0,25.0,30.11,North,355,2.0,5.0,83,0.00,,,0.01,weatherlink.com 1.10,2013-03-01 03:31:00,
2013-02-28 21:46:00,28.9,25.0,30.12,NNE,15,1.0,8.0,84,0.00,,,0.01,weatherlink.com 1.10,2013-03-01 03:46:00,
2013-02-28 22:01:00,28.6,24.0,30.11,NNE,27,4.0,8.0,84,0.00,,,0.01,weatherlink.com 1.10,2013-03-01 04:01:00,
2013-02-28 22:16:00,28.3,24.0,30.11,North,9,4.0,6.0,84,0.00,,,0.01,weatherlink.com 1.10,2013-03-01 04:16:00,
2013-02-28 22:31:00,27.9,24.0,30.11,NNE,13,2.0,5.0,85,0.00,,,0.01,weatherlink.com 1.10,2013-03-01 04:31:00,
2013-02-28 22:46:00,27.5,24.0,30.12,North,360,3.0,4.0,86,0.00,,,0.01,weatherlink.com 1.10,2013-03-01 04:46:00,
2013-02-28 23:01:00,27.1,23.0,30.12,North,5,3.0,5.0,85,0.00,,,0.01,weatherlink.com 1.10,2013-03-01 05:01:00,
2013-02-28 23:16:00,26.8,23.0,30.12,NNW,345,2.0,3.0,85,0.00,,,0.01,weatherlink.com 1.10,2013-03-01 05:16:00,
2013-02-28 23:31:00,26.7,23.0,30.12,NNW,346,2.0,3.0,86,0.00,,,0.01,weatherlink.com 1.10,2013-03-01 05:31:00,
2013-02-28 23:46:00,26.6,23.0,30.12,North,360,2.0,4.0,85,0.00,,,0.01,weatherlink.com 1.10,2013-03-01 05:46:00,